createdAt,value
2018-07-14T00:01:40.862Z,4.70
2018-07-14T00:04:10.438Z,4.57
2018-07-14T00:06:39.271Z,4.40
2018-07-14T00:09:08.117Z,4.65
2018-07-14T00:11:36.954Z,5.28
2018-07-14T00:14:05.791Z,4.93
2018-07-14T00:16:34.638Z,4.80
2018-07-14T00:19:03.486Z,4.75
2018-07-14T00:21:32.345Z,5.05
2018-07-14T00:24:01.180Z,5.10
2018-07-14T00:26:29.256Z,4.57
2018-07-14T00:28:58.108Z,5.12
2018-07-14T00:31:26.951Z,5.03
2018-07-14T00:33:55.798Z,5.82
2018-07-14T00:36:24.638Z,5.30
2018-07-14T00:38:53.486Z,5.15
2018-07-14T00:41:23.066Z,4.90
2018-07-14T00:43:51.978Z,5.85
2018-07-14T00:46:20.822Z,5.03
2018-07-14T00:48:49.659Z,5.72
2018-07-14T00:51:18.495Z,5.12
2018-07-14T00:53:47.334Z,5.12
2018-07-14T00:56:16.182Z,5.00
2018-07-14T00:58:45.022Z,5.35
2018-07-14T01:01:13.869Z,4.78
2018-07-14T01:03:42.707Z,5.53
2018-07-14T01:06:12.286Z,5.40
2018-07-14T01:08:41.130Z,4.60
2018-07-14T01:11:09.973Z,5.40
2018-07-14T01:13:38.819Z,5.07
2018-07-14T01:16:07.665Z,5.47
2018-07-14T01:18:37.253Z,5.32
2018-07-14T01:21:06.088Z,4.80
2018-07-14T01:23:34.926Z,5.10
2018-07-14T01:26:03.758Z,5.18
2018-07-14T01:28:32.610Z,5.18
2018-07-14T01:31:01.475Z,4.55
2018-07-14T01:33:30.306Z,5.40
2018-07-14T01:35:59.889Z,5.30
2018-07-14T01:38:28.748Z,5.47
2018-07-14T01:40:57.574Z,5.43
2018-07-14T01:43:27.159Z,5.18
2018-07-14T01:45:56.001Z,5.12
2018-07-14T01:48:24.846Z,5.18
2018-07-14T01:50:53.692Z,5.15
2018-07-14T01:53:22.537Z,4.78
2018-07-14T01:55:51.388Z,5.22
2018-07-14T01:58:20.211Z,5.15
2018-07-14T02:00:49.792Z,4.53
2018-07-14T02:03:18.630Z,5.60
2018-07-14T02:05:48.212Z,5.32
2018-07-14T02:08:17.040Z,5.05
2018-07-14T02:10:45.874Z,5.40
2018-07-14T02:13:14.711Z,5.93
2018-07-14T02:15:43.563Z,6.22
2018-07-14T02:18:12.412Z,6.12
2018-07-14T02:20:41.247Z,6.60
2018-07-14T02:23:10.106Z,7.07
2018-07-14T02:25:38.944Z,6.25
2018-07-14T02:28:08.535Z,7.45
2018-07-14T02:30:37.396Z,6.90
2018-07-14T02:33:06.231Z,8.15
2018-07-14T02:35:35.081Z,6.72
2018-07-14T02:38:03.988Z,6.60
2018-07-14T02:40:32.831Z,6.72
2018-07-14T02:43:01.672Z,6.95
2018-07-14T02:45:30.526Z,6.75
2018-07-14T02:47:59.362Z,6.90
2018-07-14T02:50:28.944Z,6.85
2018-07-14T02:52:57.786Z,6.15
2018-07-14T02:55:26.628Z,6.60
2018-07-14T02:57:55.471Z,6.62
2018-07-14T03:00:24.309Z,6.55
2018-07-14T03:02:53.153Z,6.00
2018-07-14T03:05:21.990Z,6.35
2018-07-14T03:07:50.837Z,6.72
2018-07-14T03:10:19.678Z,7.20
2018-07-14T03:12:49.274Z,6.90
2018-07-14T03:15:18.109Z,7.45
2018-07-14T03:17:47.181Z,7.22
2018-07-14T03:20:15.791Z,7.00
2018-07-14T03:22:44.637Z,7.00
2018-07-14T03:25:14.212Z,7.57
2018-07-14T03:27:43.044Z,7.87
2018-07-14T03:30:11.876Z,6.87
2018-07-14T03:32:40.705Z,6.35
2018-07-14T03:35:09.538Z,6.93
2018-07-14T03:37:38.382Z,6.60
2018-07-14T03:40:07.225Z,6.70
2018-07-14T03:42:36.082Z,7.32
2018-07-14T03:45:04.923Z,7.05
2018-07-14T03:47:33.753Z,6.68
2018-07-14T03:50:03.334Z,6.97
2018-07-14T03:52:32.176Z,7.10
2018-07-14T03:55:01.012Z,6.90
2018-07-14T03:57:29.840Z,6.95
2018-07-14T03:59:58.691Z,7.10
2018-07-14T04:02:27.535Z,6.53
2018-07-14T04:04:56.366Z,7.40
2018-07-14T04:07:25.219Z,6.43
2018-07-14T04:09:54.060Z,7.37
2018-07-14T04:12:22.910Z,7.20
2018-07-14T04:14:51.749Z,6.72
2018-07-14T04:17:21.313Z,6.30
2018-07-14T04:19:50.149Z,6.72
2018-07-14T04:22:19.723Z,6.80
2018-07-14T04:24:48.549Z,6.27
2018-07-14T04:27:17.391Z,6.93
2018-07-14T04:29:46.238Z,6.90
2018-07-14T04:32:15.071Z,6.20
2018-07-14T04:34:43.912Z,6.57
2018-07-14T04:37:12.770Z,6.72
2018-07-14T04:39:41.610Z,7.10
2018-07-14T04:42:10.454Z,6.47
2018-07-14T04:44:40.027Z,6.90
2018-07-14T04:47:08.864Z,6.60
2018-07-14T04:49:38.438Z,7.20
2018-07-14T04:52:07.308Z,6.50
2018-07-14T04:54:36.148Z,6.60
2018-07-14T04:57:04.985Z,6.80
2018-07-14T04:59:33.821Z,6.90
2018-07-14T05:02:03.400Z,6.73
2018-07-14T05:04:32.252Z,6.10
2018-07-14T05:07:01.097Z,7.37
2018-07-14T05:09:29.924Z,6.77
2018-07-14T05:11:58.761Z,6.60
2018-07-14T05:14:27.609Z,6.60
2018-07-14T05:16:56.452Z,7.72
2018-07-14T05:19:25.294Z,7.27
2018-07-14T05:21:54.134Z,6.73
2018-07-14T05:24:22.980Z,7.07
2018-07-14T05:26:51.809Z,7.53
2018-07-14T05:29:21.388Z,8.10
2018-07-14T05:31:50.233Z,7.70
2018-07-14T05:34:19.099Z,6.83
2018-07-14T05:36:48.689Z,7.00
2018-07-14T05:39:17.526Z,7.40
2018-07-14T05:41:46.363Z,7.23
2018-07-14T05:44:15.198Z,6.97
2018-07-14T05:46:44.035Z,7.20
2018-07-14T05:49:12.873Z,7.40
2018-07-14T05:51:41.748Z,6.93
2018-07-14T05:54:10.535Z,8.07
2018-07-14T05:56:40.120Z,7.90
2018-07-14T05:59:08.973Z,7.53
2018-07-14T06:01:37.806Z,8.50
2018-07-14T06:04:06.646Z,9.17
2018-07-14T06:06:35.489Z,9.02
2018-07-14T06:09:04.369Z,9.30
2018-07-14T06:11:33.217Z,11.12
2018-07-14T06:14:02.048Z,9.73
2018-07-14T06:16:30.898Z,8.10
2018-07-14T06:19:00.727Z,9.57
2018-07-14T06:21:30.072Z,8.82
2018-07-14T06:23:59.680Z,8.73
2018-07-14T06:26:28.528Z,8.52
2018-07-14T06:28:57.371Z,8.48
2018-07-14T06:31:26.229Z,7.25
2018-07-14T06:33:55.061Z,8.02
2018-07-14T06:36:23.906Z,7.68
2018-07-14T06:38:52.745Z,7.22
2018-07-14T06:41:21.581Z,7.62
2018-07-14T06:43:50.433Z,7.00
2018-07-14T06:46:19.279Z,7.70
2018-07-14T06:48:48.854Z,7.22
2018-07-14T06:51:17.688Z,7.35
2018-07-14T06:53:46.680Z,8.02
2018-07-14T06:56:15.529Z,6.90
2018-07-14T06:58:44.383Z,6.97
2018-07-14T07:01:13.978Z,6.28
2018-07-14T07:03:42.814Z,6.80
2018-07-14T07:06:11.672Z,7.00
2018-07-14T07:08:40.561Z,7.05
2018-07-14T07:11:10.170Z,7.47
2018-07-14T07:13:39.801Z,6.78
2018-07-14T07:16:08.591Z,7.10
2018-07-14T07:18:37.441Z,7.20
2018-07-14T07:21:06.293Z,6.47
2018-07-14T07:23:35.137Z,6.78
2018-07-14T07:26:04.712Z,6.45
2018-07-14T07:28:33.561Z,6.22
2018-07-14T07:31:02.397Z,6.10
2018-07-14T07:33:31.246Z,5.68
2018-07-14T07:36:00.087Z,5.80
2018-07-14T07:38:29.682Z,5.78
2018-07-14T07:40:58.526Z,6.32
2018-07-14T07:43:27.377Z,5.62
2018-07-14T07:45:56.220Z,6.22
2018-07-14T07:48:25.056Z,5.65
2018-07-14T07:50:54.481Z,6.10
2018-07-14T07:53:23.323Z,5.35
2018-07-14T07:55:52.168Z,5.72
2018-07-14T07:58:20.997Z,5.80
2018-07-14T08:00:49.857Z,5.22
2018-07-14T08:03:18.692Z,5.05
2018-07-14T08:05:48.126Z,5.70
2018-07-14T08:08:17.711Z,5.57
2018-07-14T08:10:46.550Z,5.53
2018-07-14T08:13:15.384Z,4.70
2018-07-14T08:15:44.222Z,5.05
2018-07-14T08:18:13.061Z,4.72
2018-07-14T08:20:41.900Z,5.37
2018-07-14T08:23:10.785Z,4.95
2018-07-14T08:25:39.585Z,4.85
2018-07-14T08:28:08.417Z,5.03
2018-07-14T08:30:37.258Z,5.03
2018-07-14T08:33:06.094Z,4.60
2018-07-14T08:35:34.936Z,4.85
2018-07-14T08:38:03.777Z,4.45
2018-07-14T08:40:32.611Z,5.12
2018-07-14T08:43:01.448Z,4.72
2018-07-14T08:45:30.279Z,4.60
2018-07-14T08:47:59.125Z,4.30
2018-07-14T08:50:27.982Z,4.50
2018-07-14T08:52:56.798Z,4.50
2018-07-14T08:55:25.648Z,4.37
2018-07-14T08:57:55.227Z,4.18
2018-07-14T09:00:24.819Z,4.20
2018-07-14T09:02:53.663Z,3.97
2018-07-14T09:05:22.499Z,4.65
2018-07-14T09:07:51.429Z,4.25
2018-07-14T09:10:20.269Z,4.62
2018-07-14T09:12:49.103Z,4.22
2018-07-14T09:15:17.935Z,4.35
2018-07-14T09:17:46.774Z,4.43
2018-07-14T09:20:15.616Z,4.12
2018-07-14T09:22:44.457Z,4.25
2018-07-14T09:25:13.314Z,4.47
2018-07-14T09:27:42.154Z,4.25
2018-07-14T09:30:10.994Z,4.30
2018-07-14T09:32:39.880Z,4.80
2018-07-14T09:35:08.677Z,4.68
2018-07-14T09:37:38.251Z,5.05
2018-07-14T09:40:07.114Z,5.23
2018-07-14T09:42:35.953Z,5.80
2018-07-14T09:45:04.790Z,5.23
2018-07-14T09:47:33.634Z,4.75
2018-07-14T09:50:02.489Z,5.30
2018-07-14T09:52:31.322Z,5.00
2018-07-14T09:55:00.905Z,4.40
2018-07-14T09:57:29.743Z,4.37
2018-07-14T09:59:58.574Z,4.78
2018-07-14T10:02:27.409Z,4.95
2018-07-14T10:04:56.242Z,4.95
2018-07-14T10:07:25.141Z,5.03
2018-07-14T10:09:53.965Z,4.85
2018-07-14T10:12:22.799Z,4.62
2018-07-14T10:14:51.669Z,4.53
2018-07-14T10:17:21.279Z,4.80
2018-07-14T10:19:50.087Z,4.70
2018-07-14T10:22:18.969Z,4.28
2018-07-14T10:24:47.779Z,3.72
2018-07-14T10:27:16.615Z,3.85
2018-07-14T10:29:45.461Z,4.15
2018-07-14T10:32:14.295Z,4.45
2018-07-14T10:34:43.138Z,4.07
2018-07-14T10:37:11.972Z,4.07
2018-07-14T10:39:40.815Z,4.10
2018-07-14T10:42:09.723Z,4.12
2018-07-14T10:44:38.503Z,3.80
2018-07-14T10:47:07.349Z,4.30
2018-07-14T10:49:36.180Z,4.28
2018-07-14T10:52:05.023Z,4.18
2018-07-14T10:54:33.875Z,3.95
2018-07-14T10:57:02.719Z,4.12
2018-07-14T10:59:31.557Z,4.22
2018-07-14T11:02:00.789Z,4.72
2018-07-14T11:04:29.690Z,4.43
2018-07-14T11:06:58.500Z,4.12
2018-07-14T11:09:27.338Z,4.30
2018-07-14T11:11:56.911Z,4.07
2018-07-14T11:14:25.749Z,4.37
2018-07-14T11:16:54.587Z,4.40
2018-07-14T11:19:23.422Z,4.00
2018-07-14T11:21:52.268Z,4.53
2018-07-14T11:24:21.110Z,4.50
2018-07-14T11:26:49.948Z,4.72
2018-07-14T11:29:18.798Z,5.43
2018-07-14T11:31:47.622Z,4.37
2018-07-14T11:34:17.212Z,4.57
2018-07-14T11:36:46.057Z,4.40
2018-07-14T11:39:14.895Z,4.15
2018-07-14T11:41:43.744Z,3.78
2018-07-14T11:44:12.573Z,3.78
2018-07-14T11:46:41.412Z,4.10
2018-07-14T11:49:10.258Z,4.05
2018-07-14T11:51:39.098Z,3.67
2018-07-14T11:54:07.974Z,3.47
2018-07-14T11:56:36.780Z,3.40
2018-07-14T11:59:05.617Z,3.75
2018-07-14T12:01:34.466Z,4.00
2018-07-14T12:04:03.301Z,7.07
2018-07-14T12:06:32.145Z,3.80
2018-07-14T12:09:00.985Z,4.20
2018-07-14T12:11:29.824Z,3.97
2018-07-14T12:13:58.663Z,3.87
2018-07-14T12:16:27.503Z,3.90
2018-07-14T12:18:56.346Z,4.30
2018-07-14T12:21:25.927Z,3.75
2018-07-14T12:23:54.769Z,4.15
2018-07-14T12:26:23.598Z,4.20
2018-07-14T12:28:52.425Z,3.95
2018-07-14T12:31:21.260Z,3.90
2018-07-14T12:33:50.105Z,4.53
2018-07-14T12:36:18.947Z,4.43
2018-07-14T12:38:47.790Z,4.18
2018-07-14T12:41:17.375Z,4.40
2018-07-14T12:43:46.222Z,3.97
2018-07-14T12:46:15.062Z,3.65
2018-07-14T12:48:43.905Z,3.87
2018-07-14T12:51:12.746Z,4.03
2018-07-14T12:53:41.608Z,3.95
2018-07-14T12:56:10.432Z,3.78
2018-07-14T12:58:39.298Z,3.87
2018-07-14T13:01:08.141Z,3.90
2018-07-14T13:03:36.985Z,3.95
2018-07-14T13:06:05.825Z,3.83
2018-07-14T13:08:34.656Z,4.20
2018-07-14T13:11:03.495Z,3.95
2018-07-14T13:13:32.349Z,3.78
2018-07-14T13:16:01.200Z,4.10
2018-07-14T13:18:30.048Z,3.90
2018-07-14T13:20:58.890Z,3.80
2018-07-14T13:23:27.736Z,4.00
2018-07-14T13:25:56.575Z,3.92
2018-07-14T13:28:25.410Z,3.50
2018-07-14T13:30:54.262Z,3.87
2018-07-14T13:33:23.091Z,3.85
2018-07-14T13:35:51.945Z,3.87
2018-07-14T13:38:20.783Z,4.00
2018-07-14T13:40:49.618Z,3.70
2018-07-14T13:43:18.453Z,3.90
2018-07-14T13:45:47.573Z,3.83
2018-07-14T13:48:16.408Z,3.30
2018-07-14T13:50:45.253Z,3.50
2018-07-14T13:53:14.094Z,3.45
2018-07-14T13:55:42.943Z,3.60
2018-07-14T13:58:11.774Z,3.60
2018-07-14T14:00:40.623Z,3.62
2018-07-14T14:03:09.461Z,3.58
2018-07-14T14:05:38.322Z,3.58
2018-07-14T14:08:07.904Z,3.37
2018-07-14T14:10:36.739Z,3.90
2018-07-14T14:13:05.589Z,3.70
2018-07-14T14:15:34.426Z,3.30
2018-07-14T14:18:03.282Z,3.60
2018-07-14T14:20:32.872Z,3.92
2018-07-14T14:23:01.706Z,3.80
2018-07-14T14:25:30.553Z,4.03
2018-07-14T14:27:59.384Z,3.87
2018-07-14T14:30:28.229Z,3.40
2018-07-14T14:32:57.071Z,3.80
2018-07-14T14:35:25.912Z,3.67
2018-07-14T14:37:54.748Z,3.50
2018-07-14T14:40:23.595Z,3.87
2018-07-14T14:42:53.175Z,3.67
2018-07-14T14:45:22.014Z,3.78
2018-07-14T14:47:50.855Z,4.00
2018-07-14T14:50:19.698Z,3.50
2018-07-14T14:52:48.559Z,3.85
2018-07-14T14:55:17.403Z,3.60
2018-07-14T14:57:46.240Z,3.40
2018-07-14T15:00:15.824Z,3.35
2018-07-14T15:02:44.654Z,3.33
2018-07-14T15:05:13.493Z,3.42
2018-07-14T15:07:42.331Z,3.12
2018-07-14T15:10:11.170Z,3.22
2018-07-14T15:12:40.013Z,2.97
2018-07-14T15:15:08.844Z,3.30
2018-07-14T15:17:37.683Z,3.37
2018-07-14T15:20:06.528Z,3.40
2018-07-14T15:22:35.372Z,3.30
2018-07-14T15:25:04.207Z,3.45
2018-07-14T15:27:33.043Z,3.40
2018-07-14T15:30:01.876Z,3.40
2018-07-14T15:32:30.750Z,3.40
2018-07-14T15:34:59.552Z,3.55
2018-07-14T15:37:28.404Z,3.30
2018-07-14T15:39:57.239Z,3.40
2018-07-14T15:42:26.096Z,3.42
2018-07-14T15:44:54.927Z,3.50
2018-07-14T15:47:23.769Z,3.37
2018-07-14T15:49:52.604Z,3.47
2018-07-14T15:52:21.450Z,3.47
2018-07-14T15:54:50.299Z,3.80
2018-07-14T15:57:19.142Z,3.33
2018-07-14T15:59:47.966Z,3.35
2018-07-14T16:02:16.815Z,3.12
2018-07-14T16:04:45.655Z,3.35
2018-07-14T16:07:14.501Z,3.53
2018-07-14T16:09:43.346Z,3.50
2018-07-14T16:14:41.755Z,3.33
2018-07-14T16:17:10.602Z,3.50
2018-07-14T16:19:39.443Z,3.67
2018-07-14T16:22:08.269Z,3.58
2018-07-14T16:24:37.126Z,3.20
2018-07-14T16:27:05.973Z,3.10
2018-07-14T16:29:34.815Z,3.58
2018-07-14T16:32:03.659Z,3.60
2018-07-14T16:34:32.508Z,3.30
2018-07-14T16:37:01.343Z,3.45
2018-07-14T16:39:30.179Z,3.75
2018-07-14T16:41:59.024Z,3.37
2018-07-14T16:44:28.852Z,3.33
2018-07-14T16:46:57.453Z,3.60
2018-07-14T16:49:26.306Z,3.45
2018-07-14T16:51:55.143Z,3.37
2018-07-14T16:54:23.986Z,3.12
2018-07-14T16:56:52.834Z,3.30
2018-07-14T16:59:21.696Z,3.45
2018-07-14T17:01:50.531Z,3.05
2018-07-14T17:04:19.452Z,3.15
2018-07-14T17:06:48.257Z,3.37
2018-07-14T17:09:17.102Z,3.20
2018-07-14T17:11:45.951Z,3.33
2018-07-14T17:14:14.931Z,3.70
2018-07-14T17:16:44.378Z,4.20
2018-07-14T17:19:13.819Z,5.30
2018-07-14T17:21:42.652Z,5.20
2018-07-14T17:24:11.506Z,4.32
2018-07-14T17:26:40.363Z,3.97
2018-07-14T17:29:09.196Z,3.30
2018-07-14T17:31:38.158Z,3.30
2018-07-14T17:34:06.880Z,3.55
2018-07-14T17:36:35.722Z,3.42
2018-07-14T17:39:05.315Z,3.42
2018-07-14T17:41:34.167Z,3.50
2018-07-14T17:44:02.999Z,3.60
2018-07-14T17:46:31.847Z,3.53
2018-07-14T17:49:00.710Z,3.62
2018-07-14T17:51:29.600Z,3.37
2018-07-14T17:53:58.395Z,3.33
2018-07-14T17:56:27.249Z,3.08
2018-07-14T17:58:56.189Z,2.95
2018-07-14T18:01:24.936Z,3.50
2018-07-14T18:03:53.772Z,5.40
2018-07-14T18:06:22.606Z,3.65
2018-07-14T18:08:52.194Z,3.55
2018-07-14T18:11:21.041Z,3.75
2018-07-14T18:13:49.900Z,3.45
2018-07-14T18:16:18.743Z,3.70
2018-07-14T18:18:47.595Z,4.03
2018-07-14T18:21:16.445Z,3.62
2018-07-14T18:23:45.300Z,3.30
2018-07-14T18:26:14.141Z,3.75
2018-07-14T18:28:42.978Z,3.50
2018-07-14T18:31:11.811Z,3.25
2018-07-14T18:33:40.659Z,3.35
2018-07-14T18:36:09.552Z,3.25
2018-07-14T18:38:39.107Z,3.35
2018-07-14T18:41:07.940Z,3.10
2018-07-14T18:43:36.791Z,3.42
2018-07-14T18:46:06.375Z,3.78
2018-07-14T18:48:35.217Z,3.50
2018-07-14T18:51:04.076Z,3.70
2018-07-14T18:53:32.914Z,3.03
2018-07-14T18:56:01.748Z,3.03
2018-07-14T18:58:31.352Z,3.40
2018-07-14T19:01:00.192Z,3.42
2018-07-14T19:03:29.034Z,3.67
2018-07-14T19:05:58.606Z,3.40
2018-07-14T19:08:27.444Z,3.35
2018-07-14T19:10:56.294Z,3.20
2018-07-14T19:13:25.220Z,3.00
2018-07-14T19:15:54.066Z,3.87
2018-07-14T19:18:22.907Z,3.70
2018-07-14T19:20:51.747Z,3.50
2018-07-14T19:23:20.673Z,3.17
2018-07-14T19:25:49.516Z,3.67
2018-07-14T19:28:18.273Z,3.60
2018-07-14T19:30:47.117Z,3.58
2018-07-14T19:33:15.987Z,3.47
2018-07-14T19:35:44.810Z,3.75
2018-07-14T19:38:13.660Z,3.80
2018-07-14T19:40:42.502Z,3.80
2018-07-14T19:43:11.338Z,4.15
2018-07-14T19:45:40.197Z,3.70
2018-07-14T19:48:09.047Z,4.00
2018-07-14T19:50:37.930Z,3.67
2018-07-14T19:53:06.761Z,3.62
2018-07-14T19:55:36.388Z,3.40
2018-07-14T19:58:05.229Z,3.40
2018-07-14T20:00:34.076Z,3.50
2018-07-14T20:03:02.920Z,3.40
2018-07-14T20:05:31.755Z,3.53
2018-07-14T20:08:00.611Z,3.50
2018-07-14T20:10:29.436Z,3.30
2018-07-14T20:12:58.296Z,3.08
2018-07-14T20:15:27.124Z,3.30
2018-07-14T20:17:55.958Z,3.28
2018-07-14T20:20:24.815Z,3.55
2018-07-14T20:22:53.651Z,3.60
2018-07-14T20:25:23.255Z,3.22
2018-07-14T20:27:52.839Z,3.30
2018-07-14T20:30:21.942Z,3.70
2018-07-14T20:32:50.547Z,3.58
2018-07-14T20:35:20.142Z,3.50
2018-07-14T20:37:48.988Z,3.40
2018-07-14T20:40:17.827Z,3.83
2018-07-14T20:42:46.690Z,3.72
2018-07-14T20:45:15.519Z,3.70
2018-07-14T20:47:44.390Z,4.05
2018-07-14T20:50:13.243Z,3.47
2018-07-14T20:52:42.102Z,3.80
2018-07-14T20:55:11.017Z,3.67
2018-07-14T20:57:40.561Z,4.30
2018-07-14T21:00:09.448Z,4.60
2018-07-14T21:02:38.291Z,4.03
2018-07-14T21:05:07.150Z,3.92
2018-07-14T21:07:35.997Z,3.83
2018-07-14T21:10:04.834Z,4.00
2018-07-14T21:12:34.539Z,4.15
2018-07-14T21:15:04.040Z,3.85
2018-07-14T21:17:32.891Z,4.50
2018-07-14T21:20:01.718Z,3.83
2018-07-14T21:22:31.334Z,4.60
2018-07-14T21:25:00.178Z,4.43
2018-07-14T21:27:29.012Z,4.55
2018-07-14T21:29:58.607Z,4.30
2018-07-14T21:32:27.450Z,4.05
2018-07-14T21:34:56.290Z,4.30
2018-07-14T21:37:25.143Z,4.18
2018-07-14T21:39:53.996Z,4.55
2018-07-14T21:42:22.844Z,4.20
2018-07-14T21:44:51.700Z,4.20
2018-07-14T21:47:20.553Z,4.32
2018-07-14T21:49:49.403Z,4.18
2018-07-14T21:52:18.238Z,4.57
2018-07-14T21:54:47.087Z,4.37
2018-07-14T21:57:15.925Z,4.15
2018-07-14T21:59:44.946Z,4.03
2018-07-14T22:02:14.373Z,4.20
2018-07-14T22:04:43.222Z,4.40
2018-07-14T22:07:12.099Z,3.83
2018-07-14T22:09:40.920Z,4.03
2018-07-14T22:12:09.803Z,3.70
2018-07-14T22:14:39.360Z,4.30
2018-07-14T22:17:08.939Z,4.12
2018-07-14T22:19:37.772Z,4.17
2018-07-14T22:22:06.607Z,4.35
2018-07-14T22:24:35.442Z,3.90
2018-07-14T22:27:04.310Z,4.25
2018-07-14T22:29:33.156Z,4.07
2018-07-14T22:32:02.007Z,4.35
2018-07-14T22:34:30.847Z,4.43
2018-07-14T22:36:59.688Z,4.00
2018-07-14T22:39:29.311Z,4.20
2018-07-14T22:41:58.117Z,4.57
2018-07-14T22:44:26.974Z,4.30
2018-07-14T22:46:55.836Z,4.20
2018-07-14T22:49:24.678Z,4.37
2018-07-14T22:51:53.536Z,3.90
2018-07-14T22:54:22.962Z,4.32
2018-07-14T22:56:51.805Z,4.28
2018-07-14T22:59:20.650Z,3.90
2018-07-14T23:01:49.480Z,3.65
2018-07-14T23:04:18.322Z,4.10
2018-07-14T23:06:47.180Z,4.18
2018-07-14T23:09:16.043Z,4.05
2018-07-14T23:11:44.865Z,4.12
2018-07-14T23:14:14.305Z,4.22
2018-07-14T23:16:43.142Z,3.92
2018-07-14T23:19:11.982Z,4.05
2018-07-14T23:21:40.827Z,3.90
2018-07-14T23:24:09.654Z,3.58
2018-07-14T23:26:38.491Z,3.65
2018-07-14T23:29:07.327Z,3.40
2018-07-14T23:31:36.167Z,3.95
2018-07-14T23:34:05.011Z,4.05
2018-07-14T23:36:33.863Z,3.50
2018-07-14T23:39:02.711Z,3.75
2018-07-14T23:41:31.555Z,3.58
2018-07-14T23:44:01.131Z,3.50
2018-07-14T23:46:29.974Z,3.55
2018-07-14T23:48:58.802Z,3.72
2018-07-14T23:51:27.642Z,4.00
2018-07-14T23:53:56.487Z,4.00
2018-07-14T23:56:25.337Z,3.83
2018-07-14T23:58:54.175Z,3.87
